McComb, MS

12:33 PM CST on January 31, 2015 (GMT -0600)
RAWS PIKE MS US | Change Station
CLOSE
Current Station
Personal Weather Station
Location: Chatawa, MS
Elevation: 366 ft
Nearby Weather Stations

Elev 366 ft 31.19 °N, 90.48 °W | Updated 1 hour ago

Clear
Clear
54.0 °F
Feels Like 54.0 °F
N
11.0
Wind Variable Wind from SE
Gusts 18.0 mph

Today
High -- | Low -- °F
--% Chance of Precip.
Yesterday
High -- | Low -- °F
Precip. -- in
6:54 AM 5:36 PM
Waxing Gibbous, 91% visible
Pressure 30.29 in
Visibility 10.0 miles
Clouds Clear
Dew Point 25.0 °F
Humidity 32%
Rainfall 0.00 in
Snow Depth Not available.
UV 5 out of 12
Pollen 7.60 out of 12
Air Quality Not available.
Flu Activity Not available.
METAR KMCB 311753Z AUTO 14006KT 10SM CLR 13/M03 A3029 RMK AO2 SLP255 T01331028 10133 20011 58013

More Conditions Fewer Conditions

Pressure 30.29 in
Visibility 10.0 miles
Clouds Clear
Dew Point 25.0 °F
Humidity 32%
Rainfall 0.00 in
Snow Depth Not available.
UV 5 out of 12
Pollen 7.60 out of 12
Air Quality Not available.
Flu Activity Not available.
METAR KMCB 311753Z AUTO 14006KT 10SM CLR 13/M03 A3029 RMK AO2 SLP255 T01331028 10133 20011 58013

More Conditions Fewer Conditions

10-Day Weather Forecast

Almanac

Astronomy

Jan. 31, 2015 Rise Set
Actual Time
Civil Twilight
Nautical Twilight
Astronomical Twilight
Moon
Length of Visible Light
Length of Day
Tomorrow will be .
, % of the Moon is Illuminated

Today's Extremes

State Highs State Lows

Community

WunderPhotos

Upload Photos

1,792,143 photos uploaded!

WunderBlogs® & News

Nearby

Air Quality

  Air Quality AQ Index Pollutant
Not available.

Snow Depth

Station Depth Elevation

Earthquake Activity

City Distance Mag. Time & Date
Minimum magnitude displayed is 2.5.

Coastal Water Temperatures

Place Temperature

Nearby Weather Stations